Hoffman, North Carolina
Current Conditions -  °F | °C
As of 6:56 AM on Saturday 22 Nov 2014 (Local Time) from KHFF Reporting Station
Clear Clear  
Wind Chill: 20°   Ceiling: Unl
Heat Index: 20°   Visibility: 10mi
Dew Point: 19°   Wind: 3mph
Humidity: 95%   Direction: 340°NNW
Pressure: 30.58"   Gusts: NA
Location:  35.03°N, 79.55°W
Report Text: KHFF 221156Z AUTO 34003KT 10SM CLR M07/M07 A3058 RMK AO2 SLP362 T10671074 11040 21068 53008
Loading
Personal Weather Stations






























Interactive Weather Map New forecast layout! Learn more

10-Day Weather Forecast

Advertisements
Track Severe Weather on mobile